• Join FlightAware (Why Join?)
  • Login
  • US Flag 
 
11:56AM EST


 

Airport Tracker/Info


-or-


 

Live Flight TrackerFlight Track Log ✈ EJA929 ✈ 18-Aug-2013 ✈ KECP - KLEX

Flight Track Log - Related Links

Times and Time Zones

All times are in EDT time to prevent confusion due to time zone crossing. See the EJA929 flight status page for this flight to view local times or setup timezone preferences in your user account.

Time Position Orientation Groundspeed Altitude Reporting Facility
EDT Latitude Longitude Course Direction KTS MPH feet Rate Location/Type
10:49AM 30.4317 -85.7136 North 285 328 7,600  Level Jacksonville Center
10:50AM 30.5069 -85.7014 North 294 338 10,500 2,100 Climbing Jacksonville Center
10:51AM 30.5992 -85.6847 North 328 377 11,900 1,380 Climbing Jacksonville Center
10:52AM 30.7083 -85.6639 North 356 410 13,300 1,440 Climbing Jacksonville Center
10:53AM 30.8194 -85.6406 10° North 388 447 14,800 1,500 Climbing Jacksonville Center
10:54AM 30.9347 -85.6197 North 407 468 16,400 1,500 Climbing Jacksonville Center
10:55AM 31.0519 -85.5964 10° North 413 475 17,900 1,380 Climbing Jacksonville Center
10:56AM 31.1714 -85.5756 North 424 488 19,200 1,200 Climbing Jacksonville Center
10:58AM 31.3953 -85.5325 North 441 507 21,400 1,200 Climbing Atlanta Center
10:59AM 31.5189 -85.5078 10° North 447 514 22,800 1,380 Climbing Atlanta Center
11:00AM 31.6631 -85.4783 10° North 466 536 24,200 1,200 Climbing Atlanta Center
11:01AM 31.7950 -85.4511 10° North 471 542 25,200 1,200 Climbing Atlanta Center
11:02AM 31.9289 -85.4264 North 476 548 26,600 1,200 Climbing Atlanta Center
11:03AM 32.0669 -85.3992 North 488 562 27,600 1,020 Climbing Atlanta Center
11:04AM 32.2050 -85.3717 10° North 488 562 28,700 2,040 Climbing Atlanta Center
11:05AM 32.3367 -85.3442 10° North 488 562 31,700 2,400 Climbing Atlanta Center
11:06AM 32.4642 -85.3189 North 482 555 33,500 1,260 Climbing Atlanta Center
11:07AM 32.6003 -85.2939 North 482 555 34,300 840 Climbing Atlanta Center
11:08AM 32.7403 -85.2636 10° North 494 568 35,200 900 Climbing Atlanta Center
11:09AM 32.8889 -85.2361 North 514 592 36,200 900 Climbing Atlanta Center
11:10AM 33.0456 -85.2061 North 536 617 37,000 360 Climbing Atlanta Center
11:11AM 33.2022 -85.2008 North 561 646 37,000  Level Atlanta Center
11:12AM 33.3631 -85.1881 North 577 664 37,000  Level Atlanta Center
11:13AM 33.5219 -85.1750 North 577 664 37,000  Level Atlanta Center
11:14AM 33.6681 -85.1619 North 577 664 37,000  Level Atlanta Center
11:15AM 33.8311 -85.1492 North 577 664 37,000  Level Atlanta Center
11:16AM 33.9939 -85.1361 North 577 664 37,000  Level Atlanta Center
11:17AM 34.1547 -85.1283 North 577 664 37,000  Level Atlanta Center
11:18AM 34.3364 -85.1281 360° North 577 664 37,000  Level Atlanta Center
11:19AM 34.4969 -85.1353 358° North 577 664 37,000  Level Atlanta Center
11:20AM 34.6597 -85.1422 358° North 577 664 37,000 -60 Level Atlanta Center
11:21AM 34.8203 -85.1494 358° North 569 655 36,900 -840 Descending Atlanta Center
11:22AM 34.9850 -85.1542 359° North 575 662 35,400 -1,500 Descending Atlanta Center
11:23AM 35.1481 -85.1286 North 585 673 34,000 -720 Descending Atlanta Center
11:24AM 35.3111 -85.1000 North 591 680 34,000  Level Atlanta Center
11:25AM 35.4742 -85.0717 North 591 680 34,000  Level Atlanta Center
11:26AM 35.6350 -85.0428 North 596 686 34,000 -1,200 Level Atlanta Center
11:28AM 35.9767 -84.9819 North 608 700 30,300 -2,100 Descending Indianapolis Center
11:29AM 36.1386 -84.9525 North 587 676 27,500 -2,580 Descending Indianapolis Center
11:30AM 36.2908 -84.9253 North 560 644 25,000 -1,740 Descending Indianapolis Center
11:31AM 36.4328 -84.8994 North 523 602 24,000 -780 Descending Indianapolis Center
11:32AM 36.6000 -84.8697 North 507 583 23,500 -1,500 Descending Indianapolis Center
11:33AM 36.7292 -84.8472 North 478 550 21,000 -2,460 Descending Indianapolis Center
11:34AM 36.8625 -84.8225 North 481 554 18,500 -2,160 Descending Indianapolis Center
11:35AM 36.9853 -84.8011 North 450 518 16,600 -2,100 Descending Indianapolis Center
11:36AM 37.1081 -84.7783 North 424 488 14,200 -2,280 Descending Indianapolis Center
11:37AM 37.2225 -84.7583 North 416 479 12,000 -1,800 Descending Indianapolis Center
11:39AM 37.3211 -84.7394 North 357 411 10,600 -1,320 Descending Indianapolis Center
11:40AM 37.4056 -84.7247 North 314 361 9,300 -1,500 Descending Indianapolis Center
11:41AM 37.4842 -84.7103 North 293 337 7,600 -1,140 Descending Indianapolis Center
11:42AM 37.5569 -84.7267 350° North 266 306 7,000 -480 Descending Indianapolis Center
11:43AM 37.6406 -84.7561 344° North 266 306 6,700 -840 Descending Indianapolis Center
11:44AM 37.7150 -84.7775 347° North 271 312 5,300 -1,200 Descending Indianapolis Center
11:45AM 37.7886 -84.7822 357° North 266 306 4,300 -1,080 Descending Indianapolis Center
11:46AM 37.8597 -84.7547 17° North 268 308 3,200 -900 Descending Indianapolis Center
11:47AM 37.9275 -84.7275 18° North 263 303 2,500 -300 Descending Indianapolis Center
11:48AM 37.9717 -84.6794 41° Northeast 229 264 2,600 -240 Climbing Indianapolis Center
11:49AM 38.0061 -84.6386 43° Northeast 212 244 2,100 -540 Descending Indianapolis Center
11:51AM 38.0333 -84.6000 15° North  Level FlightAware Approximate
11:58AM 38.0368 -84.6086 15° North  Level Estimated
11:59AM 38.0368 -84.6086 15° North  Level Estimated